sensor_id;sensor_type;location;lat;lon;timestamp;temperature;humidity
16402;DHT22;8310;44.626;11.176;2023-06-10T00:01:42;24.80;57.90
16402;DHT22;8310;44.626;11.176;2023-06-10T00:04:12;24.80;61.90
16402;DHT22;8310;44.626;11.176;2023-06-10T00:06:41;24.70;59.50
16402;DHT22;8310;44.626;11.176;2023-06-10T00:09:09;24.70;58.50
16402;DHT22;8310;44.626;11.176;2023-06-10T00:11:37;24.60;58.40
16402;DHT22;8310;44.626;11.176;2023-06-10T00:14:04;24.60;58.20
16402;DHT22;8310;44.626;11.176;2023-06-10T00:16:32;24.60;58.20
16402;DHT22;8310;44.626;11.176;2023-06-10T00:18:59;24.60;58.10
16402;DHT22;8310;44.626;11.176;2023-06-10T00:21:28;24.60;58.20
16402;DHT22;8310;44.626;11.176;2023-06-10T00:23:56;24.60;58.40
16402;DHT22;8310;44.626;11.176;2023-06-10T00:26:28;24.60;58.20
16402;DHT22;8310;44.626;11.176;2023-06-10T00:28:55;24.60;58.10
16402;DHT22;8310;44.626;11.176;2023-06-10T00:31:22;24.50;58.60
16402;DHT22;8310;44.626;11.176;2023-06-10T00:33:51;24.40;58.20
16402;DHT22;8310;44.626;11.176;2023-06-10T00:36:18;24.30;58.00
16402;DHT22;8310;44.626;11.176;2023-06-10T00:38:46;24.30;58.10
16402;DHT22;8310;44.626;11.176;2023-06-10T00:41:14;24.20;58.00
16402;DHT22;8310;44.626;11.176;2023-06-10T00:43:41;24.20;58.10
16402;DHT22;8310;44.626;11.176;2023-06-10T00:46:09;24.20;58.10
16402;DHT22;8310;44.626;11.176;2023-06-10T00:48:37;24.20;58.20
16402;DHT22;8310;44.626;11.176;2023-06-10T00:51:05;24.20;58.20
16402;DHT22;8310;44.626;11.176;2023-06-10T00:53:34;24.20;58.30
16402;DHT22;8310;44.626;11.176;2023-06-10T00:56:01;24.10;58.20
16402;DHT22;8310;44.626;11.176;2023-06-10T00:58:30;24.10;58.40
16402;DHT22;8310;44.626;11.176;2023-06-10T01:00:58;24.10;58.30
16402;DHT22;8310;44.626;11.176;2023-06-10T01:03:25;24.00;58.20
16402;DHT22;8310;44.626;11.176;2023-06-10T01:05:53;24.00;58.20
16402;DHT22;8310;44.626;11.176;2023-06-10T01:08:25;24.00;58.20
16402;DHT22;8310;44.626;11.176;2023-06-10T01:10:57;24.00;58.50
16402;DHT22;8310;44.626;11.176;2023-06-10T01:13:24;24.00;58.60
16402;DHT22;8310;44.626;11.176;2023-06-10T01:15:55;23.90;58.40
16402;DHT22;8310;44.626;11.176;2023-06-10T01:18:23;23.90;58.40
16402;DHT22;8310;44.626;11.176;2023-06-10T01:20:50;23.90;58.50
16402;DHT22;8310;44.626;11.176;2023-06-10T01:23:19;23.90;58.50
16402;DHT22;8310;44.626;11.176;2023-06-10T01:25:49;23.90;58.50
16402;DHT22;8310;44.626;11.176;2023-06-10T01:28:18;23.90;58.50
16402;DHT22;8310;44.626;11.176;2023-06-10T01:30:48;23.90;58.50
16402;DHT22;8310;44.626;11.176;2023-06-10T01:33:17;23.90;58.50
16402;DHT22;8310;44.626;11.176;2023-06-10T01:35:48;23.90;58.50
16402;DHT22;8310;44.626;11.176;2023-06-10T01:38:19;23.90;58.50
16402;DHT22;8310;44.626;11.176;2023-06-10T01:40:47;23.90;58.50
16402;DHT22;8310;44.626;11.176;2023-06-10T01:43:15;23.80;58.50
16402;DHT22;8310;44.626;11.176;2023-06-10T01:45:42;23.80;58.60
16402;DHT22;8310;44.626;11.176;2023-06-10T01:48:09;23.80;58.60
16402;DHT22;8310;44.626;11.176;2023-06-10T01:50:36;23.80;58.50
16402;DHT22;8310;44.626;11.176;2023-06-10T01:53:04;23.70;58.50
16402;DHT22;8310;44.626;11.176;2023-06-10T01:55:33;23.70;58.50
16402;DHT22;8310;44.626;11.176;2023-06-10T01:58:01;23.70;58.60
16402;DHT22;8310;44.626;11.176;2023-06-10T02:00:28;23.70;58.70
16402;DHT22;8310;44.626;11.176;2023-06-10T02:02:55;23.70;58.70
16402;DHT22;8310;44.626;11.176;2023-06-10T02:05:22;23.70;58.60
16402;DHT22;8310;44.626;11.176;2023-06-10T02:07:49;23.80;58.70
16402;DHT22;8310;44.626;11.176;2023-06-10T02:10:16;23.70;58.60
16402;DHT22;8310;44.626;11.176;2023-06-10T02:12:45;23.70;58.70
16402;DHT22;8310;44.626;11.176;2023-06-10T02:15:15;23.80;58.70
16402;DHT22;8310;44.626;11.176;2023-06-10T02:17:42;23.70;58.70
16402;DHT22;8310;44.626;11.176;2023-06-10T02:20:10;23.70;58.70
16402;DHT22;8310;44.626;11.176;2023-06-10T02:22:39;23.80;58.70
16402;DHT22;8310;44.626;11.176;2023-06-10T02:25:07;23.70;58.70
16402;DHT22;8310;44.626;11.176;2023-06-10T02:27:34;23.70;58.70
16402;DHT22;8310;44.626;11.176;2023-06-10T02:30:04;23.60;58.50
16402;DHT22;8310;44.626;11.176;2023-06-10T02:32:31;23.60;60.00
16402;DHT22;8310;44.626;11.176;2023-06-10T02:34:58;23.50;59.00
16402;DHT22;8310;44.626;11.176;2023-06-10T02:37:26;23.40;59.00
16402;DHT22;8310;44.626;11.176;2023-06-10T02:39:53;23.30;59.20
16402;DHT22;8310;44.626;11.176;2023-06-10T02:42:21;23.30;59.30
16402;DHT22;8310;44.626;11.176;2023-06-10T02:44:48;23.30;61.50
16402;DHT22;8310;44.626;11.176;2023-06-10T02:47:16;23.20;60.80
16402;DHT22;8310;44.626;11.176;2023-06-10T02:49:46;23.20;59.40
16402;DHT22;8310;44.626;11.176;2023-06-10T02:52:14;23.20;59.60
16402;DHT22;8310;44.626;11.176;2023-06-10T02:54:40;23.10;59.00
16402;DHT22;8310;44.626;11.176;2023-06-10T02:57:08;23.10;58.90
16402;DHT22;8310;44.626;11.176;2023-06-10T02:59:36;23.10;58.80
16402;DHT22;8310;44.626;11.176;2023-06-10T03:02:04;23.00;58.80
16402;DHT22;8310;44.626;11.176;2023-06-10T03:04:33;23.00;58.80
16402;DHT22;8310;44.626;11.176;2023-06-10T03:07:00;23.00;58.90
16402;DHT22;8310;44.626;11.176;2023-06-10T03:09:29;23.00;58.90
16402;DHT22;8310;44.626;11.176;2023-06-10T03:11:56;22.90;58.90
16402;DHT22;8310;44.626;11.176;2023-06-10T03:14:24;22.90;58.80
16402;DHT22;8310;44.626;11.176;2023-06-10T03:16:51;22.80;58.80
16402;DHT22;8310;44.626;11.176;2023-06-10T03:19:18;22.80;58.80
16402;DHT22;8310;44.626;11.176;2023-06-10T03:21:48;22.80;58.90
16402;DHT22;8310;44.626;11.176;2023-06-10T03:24:15;22.80;59.00
16402;DHT22;8310;44.626;11.176;2023-06-10T03:26:46;22.80;59.10
16402;DHT22;8310;44.626;11.176;2023-06-10T03:29:13;22.80;59.10
16402;DHT22;8310;44.626;11.176;2023-06-10T03:31:40;22.80;59.30
16402;DHT22;8310;44.626;11.176;2023-06-10T03:34:07;22.80;59.20
16402;DHT22;8310;44.626;11.176;2023-06-10T03:36:34;22.80;59.40
16402;DHT22;8310;44.626;11.176;2023-06-10T03:39:04;22.80;59.40
16402;DHT22;8310;44.626;11.176;2023-06-10T03:41:31;22.90;59.30
16402;DHT22;8310;44.626;11.176;2023-06-10T03:43:58;22.90;59.30
16402;DHT22;8310;44.626;11.176;2023-06-10T03:46:26;22.90;59.30
16402;DHT22;8310;44.626;11.176;2023-06-10T03:48:53;22.90;59.40
16402;DHT22;8310;44.626;11.176;2023-06-10T03:51:21;22.90;59.20
16402;DHT22;8310;44.626;11.176;2023-06-10T03:53:48;22.80;59.10
16402;DHT22;8310;44.626;11.176;2023-06-10T03:56:17;22.80;59.20
16402;DHT22;8310;44.626;11.176;2023-06-10T03:58:44;22.70;59.10
16402;DHT22;8310;44.626;11.176;2023-06-10T04:01:11;22.70;59.80
16402;DHT22;8310;44.626;11.176;2023-06-10T04:03:43;22.70;59.20
16402;DHT22;8310;44.626;11.176;2023-06-10T04:06:10;22.70;59.30
16402;DHT22;8310;44.626;11.176;2023-06-10T04:08:37;22.70;60.00
16402;DHT22;8310;44.626;11.176;2023-06-10T04:11:04;22.60;59.30
16402;DHT22;8310;44.626;11.176;2023-06-10T04:13:33;22.60;59.30
16402;DHT22;8310;44.626;11.176;2023-06-10T04:16:01;22.60;59.40
16402;DHT22;8310;44.626;11.176;2023-06-10T04:18:28;22.60;59.60
16402;DHT22;8310;44.626;11.176;2023-06-10T04:20:55;22.60;59.40
16402;DHT22;8310;44.626;11.176;2023-06-10T04:23:22;22.60;59.40
16402;DHT22;8310;44.626;11.176;2023-06-10T04:25:49;22.60;59.40
16402;DHT22;8310;44.626;11.176;2023-06-10T04:28:16;22.60;59.50
16402;DHT22;8310;44.626;11.176;2023-06-10T04:30:45;22.60;59.60
16402;DHT22;8310;44.626;11.176;2023-06-10T04:33:12;22.60;59.60
16402;DHT22;8310;44.626;11.176;2023-06-10T04:35:39;22.60;59.60
16402;DHT22;8310;44.626;11.176;2023-06-10T04:38:07;22.70;59.70
16402;DHT22;8310;44.626;11.176;2023-06-10T04:40:34;22.70;59.70
16402;DHT22;8310;44.626;11.176;2023-06-10T04:43:01;22.70;59.80
16402;DHT22;8310;44.626;11.176;2023-06-10T04:45:28;22.70;59.80
16402;DHT22;8310;44.626;11.176;2023-06-10T04:47:56;22.80;59.90
16402;DHT22;8310;44.626;11.176;2023-06-10T04:50:23;22.70;59.90
16402;DHT22;8310;44.626;11.176;2023-06-10T04:52:51;22.80;60.00
16402;DHT22;8310;44.626;11.176;2023-06-10T04:55:18;22.80;60.00
16402;DHT22;8310;44.626;11.176;2023-06-10T04:57:45;22.80;59.90
16402;DHT22;8310;44.626;11.176;2023-06-10T05:00:12;22.90;60.80
16402;DHT22;8310;44.626;11.176;2023-06-10T05:02:40;22.80;60.20
16402;DHT22;8310;44.626;11.176;2023-06-10T05:05:09;22.90;60.30
16402;DHT22;8310;44.626;11.176;2023-06-10T05:07:37;22.90;60.30
16402;DHT22;8310;44.626;11.176;2023-06-10T05:10:04;22.90;60.30
16402;DHT22;8310;44.626;11.176;2023-06-10T05:12:31;22.90;60.10
16402;DHT22;8310;44.626;11.176;2023-06-10T05:14:59;22.90;60.10
16402;DHT22;8310;44.626;11.176;2023-06-10T05:17:26;22.90;60.20
16402;DHT22;8310;44.626;11.176;2023-06-10T05:19:53;22.90;60.30
16402;DHT22;8310;44.626;11.176;2023-06-10T05:22:22;22.90;60.20
16402;DHT22;8310;44.626;11.176;2023-06-10T05:24:50;22.90;60.30
16402;DHT22;8310;44.626;11.176;2023-06-10T05:27:17;22.90;60.30
16402;DHT22;8310;44.626;11.176;2023-06-10T05:29:45;23.00;60.40
16402;DHT22;8310;44.626;11.176;2023-06-10T05:32:12;23.00;60.60
16402;DHT22;8310;44.626;11.176;2023-06-10T05:34:39;23.00;60.40
16402;DHT22;8310;44.626;11.176;2023-06-10T05:37:06;23.00;60.50
16402;DHT22;8310;44.626;11.176;2023-06-10T05:39:36;23.00;61.00
16402;DHT22;8310;44.626;11.176;2023-06-10T05:42:04;23.00;60.80
16402;DHT22;8310;44.626;11.176;2023-06-10T05:44:31;23.00;60.60
16402;DHT22;8310;44.626;11.176;2023-06-10T05:46:59;23.00;60.70
16402;DHT22;8310;44.626;11.176;2023-06-10T05:49:26;23.10;60.70
16402;DHT22;8310;44.626;11.176;2023-06-10T05:51:54;23.10;61.00
16402;DHT22;8310;44.626;11.176;2023-06-10T05:54:21;23.10;60.80
16402;DHT22;8310;44.626;11.176;2023-06-10T05:56:50;23.10;60.70
16402;DHT22;8310;44.626;11.176;2023-06-10T05:59:18;23.10;60.70
16402;DHT22;8310;44.626;11.176;2023-06-10T06:01:45;23.20;60.80
16402;DHT22;8310;44.626;11.176;2023-06-10T06:04:12;23.20;60.90
16402;DHT22;8310;44.626;11.176;2023-06-10T06:06:39;23.20;60.80
16402;DHT22;8310;44.626;11.176;2023-06-10T06:09:07;23.30;61.00
16402;DHT22;8310;44.626;11.176;2023-06-10T06:11:34;23.30;61.20
16402;DHT22;8310;44.626;11.176;2023-06-10T06:14:03;23.30;61.70
16402;DHT22;8310;44.626;11.176;2023-06-10T06:16:30;23.30;62.00
16402;DHT22;8310;44.626;11.176;2023-06-10T06:18:58;23.30;61.50
16402;DHT22;8310;44.626;11.176;2023-06-10T06:21:25;23.30;61.50
16402;DHT22;8310;44.626;11.176;2023-06-10T06:23:52;23.30;61.30
16402;DHT22;8310;44.626;11.176;2023-06-10T06:26:19;23.40;61.40
16402;DHT22;8310;44.626;11.176;2023-06-10T06:28:47;23.40;61.90
16402;DHT22;8310;44.626;11.176;2023-06-10T06:31:15;23.50;61.70
16402;DHT22;8310;44.626;11.176;2023-06-10T06:33:42;23.50;61.70
16402;DHT22;8310;44.626;11.176;2023-06-10T06:36:09;23.60;61.80
16402;DHT22;8310;44.626;11.176;2023-06-10T06:38:37;23.60;62.00
16402;DHT22;8310;44.626;11.176;2023-06-10T06:41:04;23.70;62.50
16402;DHT22;8310;44.626;11.176;2023-06-10T06:43:31;23.70;61.60
16402;DHT22;8310;44.626;11.176;2023-06-10T06:45:59;23.70;61.60
16402;DHT22;8310;44.626;11.176;2023-06-10T06:48:28;23.70;61.60
16402;DHT22;8310;44.626;11.176;2023-06-10T06:50:55;23.80;62.10
16402;DHT22;8310;44.626;11.176;2023-06-10T06:53:26;23.80;61.90
16402;DHT22;8310;44.626;11.176;2023-06-10T06:55:53;23.80;62.10
16402;DHT22;8310;44.626;11.176;2023-06-10T06:58:21;23.90;62.70
16402;DHT22;8310;44.626;11.176;2023-06-10T07:00:48;23.90;63.30
16402;DHT22;8310;44.626;11.176;2023-06-10T07:03:15;24.00;64.00
16402;DHT22;8310;44.626;11.176;2023-06-10T07:05:44;24.00;63.00
16402;DHT22;8310;44.626;11.176;2023-06-10T07:08:11;24.10;63.30
16402;DHT22;8310;44.626;11.176;2023-06-10T07:10:38;24.20;63.10
16402;DHT22;8310;44.626;11.176;2023-06-10T07:13:06;24.30;63.10
16402;DHT22;8310;44.626;11.176;2023-06-10T07:15:33;24.30;62.90
16402;DHT22;8310;44.626;11.176;2023-06-10T07:18:00;24.50;62.70
16402;DHT22;8310;44.626;11.176;2023-06-10T07:20:27;24.50;62.80
16402;DHT22;8310;44.626;11.176;2023-06-10T07:22:56;24.60;63.00
16402;DHT22;8310;44.626;11.176;2023-06-10T07:25:23;24.70;63.00
16402;DHT22;8310;44.626;11.176;2023-06-10T07:27:50;24.80;63.00
16402;DHT22;8310;44.626;11.176;2023-06-10T07:30:17;24.90;63.10
16402;DHT22;8310;44.626;11.176;2023-06-10T07:32:44;25.00;64.00
16402;DHT22;8310;44.626;11.176;2023-06-10T07:35:11;25.10;63.50
16402;DHT22;8310;44.626;11.176;2023-06-10T07:37:39;25.20;63.50
16402;DHT22;8310;44.626;11.176;2023-06-10T07:40:08;25.30;63.60
16402;DHT22;8310;44.626;11.176;2023-06-10T07:42:36;25.40;64.10
16402;DHT22;8310;44.626;11.176;2023-06-10T07:45:03;25.60;64.30
16402;DHT22;8310;44.626;11.176;2023-06-10T07:47:32;25.80;64.60
16402;DHT22;8310;44.626;11.176;2023-06-10T07:50:00;26.00;64.90
16402;DHT22;8310;44.626;11.176;2023-06-10T07:52:27;26.20;65.30
16402;DHT22;8310;44.626;11.176;2023-06-10T07:54:54;26.50;65.40
16402;DHT22;8310;44.626;11.176;2023-06-10T07:57:23;26.70;65.10
16402;DHT22;8310;44.626;11.176;2023-06-10T07:59:50;26.80;64.80
16402;DHT22;8310;44.626;11.176;2023-06-10T08:02:17;26.90;64.60
16402;DHT22;8310;44.626;11.176;2023-06-10T08:04:44;27.00;64.40
16402;DHT22;8310;44.626;11.176;2023-06-10T08:07:12;27.00;64.10
16402;DHT22;8310;44.626;11.176;2023-06-10T08:09:38;27.00;64.00
16402;DHT22;8310;44.626;11.176;2023-06-10T08:12:06;27.00;63.90
16402;DHT22;8310;44.626;11.176;2023-06-10T08:14:34;26.90;63.70
16402;DHT22;8310;44.626;11.176;2023-06-10T08:17:02;26.90;63.60
16402;DHT22;8310;44.626;11.176;2023-06-10T08:19:31;26.80;63.40
16402;DHT22;8310;44.626;11.176;2023-06-10T08:21:59;26.80;63.40
16402;DHT22;8310;44.626;11.176;2023-06-10T08:24:26;26.80;63.50
16402;DHT22;8310;44.626;11.176;2023-06-10T08:26:53;26.80;63.40
16402;DHT22;8310;44.626;11.176;2023-06-10T08:29:21;26.80;63.20
16402;DHT22;8310;44.626;11.176;2023-06-10T08:31:50;26.70;63.20
16402;DHT22;8310;44.626;11.176;2023-06-10T08:34:17;26.80;63.20
16402;DHT22;8310;44.626;11.176;2023-06-10T08:36:44;26.80;63.20
16402;DHT22;8310;44.626;11.176;2023-06-10T08:39:12;26.80;63.20
16402;DHT22;8310;44.626;11.176;2023-06-10T08:41:40;26.80;63.20
16402;DHT22;8310;44.626;11.176;2023-06-10T08:44:10;26.80;63.30
16402;DHT22;8310;44.626;11.176;2023-06-10T08:46:39;26.80;63.30
16402;DHT22;8310;44.626;11.176;2023-06-10T08:49:11;26.90;63.30
16402;DHT22;8310;44.626;11.176;2023-06-10T08:51:42;26.90;63.20
16402;DHT22;8310;44.626;11.176;2023-06-10T08:54:10;26.90;63.20
16402;DHT22;8310;44.626;11.176;2023-06-10T08:56:39;26.90;64.10
16402;DHT22;8310;44.626;11.176;2023-06-10T08:59:06;26.90;63.00
16402;DHT22;8310;44.626;11.176;2023-06-10T09:01:35;26.90;63.10
16402;DHT22;8310;44.626;11.176;2023-06-10T09:04:03;27.00;63.10
16402;DHT22;8310;44.626;11.176;2023-06-10T09:06:32;27.00;63.20
16402;DHT22;8310;44.626;11.176;2023-06-10T09:08:59;27.00;63.20
16402;DHT22;8310;44.626;11.176;2023-06-10T09:11:27;27.00;63.10
16402;DHT22;8310;44.626;11.176;2023-06-10T09:13:54;27.00;63.20
16402;DHT22;8310;44.626;11.176;2023-06-10T09:16:23;27.10;63.30
16402;DHT22;8310;44.626;11.176;2023-06-10T09:18:50;27.20;63.60
16402;DHT22;8310;44.626;11.176;2023-06-10T09:21:20;27.20;63.60
16402;DHT22;8310;44.626;11.176;2023-06-10T09:23:49;27.30;63.80
16402;DHT22;8310;44.626;11.176;2023-06-10T09:26:17;27.40;63.90
16402;DHT22;8310;44.626;11.176;2023-06-10T09:28:45;27.50;64.00
16402;DHT22;8310;44.626;11.176;2023-06-10T09:31:15;27.60;64.30
16402;DHT22;8310;44.626;11.176;2023-06-10T09:33:47;27.80;64.60
16402;DHT22;8310;44.626;11.176;2023-06-10T09:36:21;28.00;64.90
16402;DHT22;8310;44.626;11.176;2023-06-10T09:38:50;28.10;64.80
16402;DHT22;8310;44.626;11.176;2023-06-10T09:41:17;28.30;64.90
16402;DHT22;8310;44.626;11.176;2023-06-10T09:43:47;28.40;64.80
16402;DHT22;8310;44.626;11.176;2023-06-10T09:46:15;28.50;64.60
16402;DHT22;8310;44.626;11.176;2023-06-10T09:48:43;28.60;64.50
16402;DHT22;8310;44.626;11.176;2023-06-10T09:51:11;28.60;64.30
16402;DHT22;8310;44.626;11.176;2023-06-10T09:53:39;28.70;64.30
16402;DHT22;8310;44.626;11.176;2023-06-10T09:56:07;28.70;64.50
16402;DHT22;8310;44.626;11.176;2023-06-10T09:58:35;28.80;64.60
16402;DHT22;8310;44.626;11.176;2023-06-10T10:01:06;28.80;64.60
16402;DHT22;8310;44.626;11.176;2023-06-10T10:03:33;28.90;64.70
16402;DHT22;8310;44.626;11.176;2023-06-10T10:06:01;29.10;64.90
16402;DHT22;8310;44.626;11.176;2023-06-10T10:08:28;29.20;65.40
16402;DHT22;8310;44.626;11.176;2023-06-10T10:10:56;29.30;64.60
16402;DHT22;8310;44.626;11.176;2023-06-10T10:13:25;29.30;64.60
16402;DHT22;8310;44.626;11.176;2023-06-10T10:15:53;29.40;64.50
16402;DHT22;8310;44.626;11.176;2023-06-10T10:18:21;29.50;64.50
16402;DHT22;8310;44.626;11.176;2023-06-10T10:20:54;29.50;64.50
16402;DHT22;8310;44.626;11.176;2023-06-10T10:23:24;29.60;64.40
16402;DHT22;8310;44.626;11.176;2023-06-10T10:25:53;29.60;64.20
16402;DHT22;8310;44.626;11.176;2023-06-10T10:28:21;29.60;64.00
16402;DHT22;8310;44.626;11.176;2023-06-10T10:30:54;29.60;63.90
16402;DHT22;8310;44.626;11.176;2023-06-10T10:33:25;29.60;64.00
16402;DHT22;8310;44.626;11.176;2023-06-10T10:35:55;29.60;64.00
16402;DHT22;8310;44.626;11.176;2023-06-10T10:38:22;29.60;63.80
16402;DHT22;8310;44.626;11.176;2023-06-10T10:40:50;29.60;63.80
16402;DHT22;8310;44.626;11.176;2023-06-10T10:43:17;29.60;63.70
16402;DHT22;8310;44.626;11.176;2023-06-10T10:45:45;29.60;63.50
16402;DHT22;8310;44.626;11.176;2023-06-10T10:48:14;29.60;63.40
16402;DHT22;8310;44.626;11.176;2023-06-10T10:50:42;29.50;63.30
16402;DHT22;8310;44.626;11.176;2023-06-10T10:53:09;29.40;63.10
16402;DHT22;8310;44.626;11.176;2023-06-10T10:55:36;29.40;63.10
16402;DHT22;8310;44.626;11.176;2023-06-10T10:58:04;29.30;63.00
16402;DHT22;8310;44.626;11.176;2023-06-10T11:00:32;29.30;63.00
16402;DHT22;8310;44.626;11.176;2023-06-10T11:03:00;29.20;63.00
16402;DHT22;8310;44.626;11.176;2023-06-10T11:05:35;29.20;63.00
16402;DHT22;8310;44.626;11.176;2023-06-10T11:08:03;29.20;63.00
16402;DHT22;8310;44.626;11.176;2023-06-10T11:10:30;29.20;62.90
16402;DHT22;8310;44.626;11.176;2023-06-10T11:12:57;29.10;62.90
16402;DHT22;8310;44.626;11.176;2023-06-10T11:15:26;29.10;62.80
16402;DHT22;8310;44.626;11.176;2023-06-10T11:18:12;29.10;63.00
16402;DHT22;8310;44.626;11.176;2023-06-10T11:20:57;29.10;62.90
16402;DHT22;8310;44.626;11.176;2023-06-10T11:23:26;29.10;62.80
16402;DHT22;8310;44.626;11.176;2023-06-10T11:28:35;29.00;62.70
16402;DHT22;8310;44.626;11.176;2023-06-10T11:31:02;29.00;62.50
16402;DHT22;8310;44.626;11.176;2023-06-10T11:33:29;28.90;62.40
16402;DHT22;8310;44.626;11.176;2023-06-10T11:35:59;28.90;62.50
16402;DHT22;8310;44.626;11.176;2023-06-10T11:38:26;28.80;62.50
16402;DHT22;8310;44.626;11.176;2023-06-10T11:40:53;28.80;62.50
16402;DHT22;8310;44.626;11.176;2023-06-10T11:43:20;28.80;62.40
16402;DHT22;8310;44.626;11.176;2023-06-10T11:45:47;28.80;61.50
16402;DHT22;8310;44.626;11.176;2023-06-10T11:48:20;28.80;62.20
16402;DHT22;8310;44.626;11.176;2023-06-10T11:50:47;28.70;62.30
16402;DHT22;8310;44.626;11.176;2023-06-10T11:53:16;28.60;62.20
16402;DHT22;8310;44.626;11.176;2023-06-10T11:55:44;28.60;62.30
16402;DHT22;8310;44.626;11.176;2023-06-10T11:58:12;28.60;62.30
16402;DHT22;8310;44.626;11.176;2023-06-10T12:00:43;28.60;62.30
16402;DHT22;8310;44.626;11.176;2023-06-10T12:03:11;28.50;62.30
16402;DHT22;8310;44.626;11.176;2023-06-10T12:05:38;28.50;62.30
16402;DHT22;8310;44.626;11.176;2023-06-10T12:08:09;28.50;62.20
16402;DHT22;8310;44.626;11.176;2023-06-10T12:10:41;28.50;62.30
16402;DHT22;8310;44.626;11.176;2023-06-10T12:13:09;28.40;62.20
16402;DHT22;8310;44.626;11.176;2023-06-10T12:15:36;28.40;62.20
16402;DHT22;8310;44.626;11.176;2023-06-10T12:18:04;28.40;62.30
16402;DHT22;8310;44.626;11.176;2023-06-10T12:20:31;28.40;62.30
16402;DHT22;8310;44.626;11.176;2023-06-10T12:22:59;28.40;62.20
16402;DHT22;8310;44.626;11.176;2023-06-10T12:25:27;28.40;62.00
16402;DHT22;8310;44.626;11.176;2023-06-10T12:27:56;28.30;61.90
16402;DHT22;8310;44.626;11.176;2023-06-10T12:30:24;28.30;61.90
16402;DHT22;8310;44.626;11.176;2023-06-10T12:32:51;28.20;62.00
16402;DHT22;8310;44.626;11.176;2023-06-10T12:35:19;28.20;62.10
16402;DHT22;8310;44.626;11.176;2023-06-10T12:37:54;28.20;62.20
16402;DHT22;8310;44.626;11.176;2023-06-10T12:40:25;28.20;62.00
16402;DHT22;8310;44.626;11.176;2023-06-10T12:42:52;28.20;61.90
16402;DHT22;8310;44.626;11.176;2023-06-10T12:45:27;28.10;61.90
16402;DHT22;8310;44.626;11.176;2023-06-10T12:48:03;28.10;62.10
16402;DHT22;8310;44.626;11.176;2023-06-10T12:50:31;28.10;62.10
16402;DHT22;8310;44.626;11.176;2023-06-10T12:52:59;28.10;62.10
16402;DHT22;8310;44.626;11.176;2023-06-10T12:55:26;28.10;62.20
16402;DHT22;8310;44.626;11.176;2023-06-10T12:57:54;28.10;62.30
16402;DHT22;8310;44.626;11.176;2023-06-10T13:00:21;28.10;62.30
16402;DHT22;8310;44.626;11.176;2023-06-10T13:02:52;28.10;62.20
16402;DHT22;8310;44.626;11.176;2023-06-10T13:05:20;28.10;62.30
16402;DHT22;8310;44.626;11.176;2023-06-10T13:07:48;28.20;62.60
16402;DHT22;8310;44.626;11.176;2023-06-10T13:10:15;28.20;63.40
16402;DHT22;8310;44.626;11.176;2023-06-10T13:12:43;28.30;62.50
16402;DHT22;8310;44.626;11.176;2023-06-10T13:15:10;28.30;62.80
16402;DHT22;8310;44.626;11.176;2023-06-10T13:17:38;28.40;63.10
16402;DHT22;8310;44.626;11.176;2023-06-10T13:20:07;28.50;63.20
16402;DHT22;8310;44.626;11.176;2023-06-10T13:22:34;28.70;63.30
16402;DHT22;8310;44.626;11.176;2023-06-10T13:25:02;28.80;63.10
16402;DHT22;8310;44.626;11.176;2023-06-10T13:27:29;28.80;62.90
16402;DHT22;8310;44.626;11.176;2023-06-10T13:29:57;28.80;62.70
16402;DHT22;8310;44.626;11.176;2023-06-10T13:32:24;28.80;62.60
16402;DHT22;8310;44.626;11.176;2023-06-10T13:34:52;28.80;62.50
16402;DHT22;8310;44.626;11.176;2023-06-10T13:37:20;28.80;62.40
16402;DHT22;8310;44.626;11.176;2023-06-10T13:39:48;28.80;62.40
16402;DHT22;8310;44.626;11.176;2023-06-10T13:42:16;28.70;62.40
16402;DHT22;8310;44.626;11.176;2023-06-10T13:44:44;28.70;62.40
16402;DHT22;8310;44.626;11.176;2023-06-10T13:47:11;28.70;62.60
16402;DHT22;8310;44.626;11.176;2023-06-10T13:49:38;28.70;62.40
16402;DHT22;8310;44.626;11.176;2023-06-10T13:52:05;28.70;62.40
16402;DHT22;8310;44.626;11.176;2023-06-10T13:54:35;28.70;62.50
16402;DHT22;8310;44.626;11.176;2023-06-10T13:57:03;28.80;62.30
16402;DHT22;8310;44.626;11.176;2023-06-10T13:59:30;28.80;63.10
16402;DHT22;8310;44.626;11.176;2023-06-10T14:01:57;28.70;62.30
16402;DHT22;8310;44.626;11.176;2023-06-10T14:04:25;28.70;62.20
16402;DHT22;8310;44.626;11.176;2023-06-10T14:06:52;28.70;62.20
16402;DHT22;8310;44.626;11.176;2023-06-10T14:09:20;28.70;62.00
16402;DHT22;8310;44.626;11.176;2023-06-10T14:11:48;28.60;61.80
16402;DHT22;8310;44.626;11.176;2023-06-10T14:14:16;28.50;61.70
16402;DHT22;8310;44.626;11.176;2023-06-10T14:16:43;28.40;61.70
16402;DHT22;8310;44.626;11.176;2023-06-10T14:19:10;28.40;61.80
16402;DHT22;8310;44.626;11.176;2023-06-10T14:21:38;28.40;62.00
16402;DHT22;8310;44.626;11.176;2023-06-10T14:24:05;28.40;62.00
16402;DHT22;8310;44.626;11.176;2023-06-10T14:26:32;28.40;61.80
16402;DHT22;8310;44.626;11.176;2023-06-10T14:29:01;28.30;61.30
16402;DHT22;8310;44.626;11.176;2023-06-10T14:31:29;28.20;61.00
16402;DHT22;8310;44.626;11.176;2023-06-10T14:33:57;28.10;60.80
16402;DHT22;8310;44.626;11.176;2023-06-10T14:36:24;27.90;60.70
16402;DHT22;8310;44.626;11.176;2023-06-10T14:38:51;27.80;60.80
16402;DHT22;8310;44.626;11.176;2023-06-10T14:41:19;27.70;60.80
16402;DHT22;8310;44.626;11.176;2023-06-10T14:43:47;27.70;60.80
16402;DHT22;8310;44.626;11.176;2023-06-10T14:46:16;27.60;60.80
16402;DHT22;8310;44.626;11.176;2023-06-10T14:48:43;27.50;60.80
16402;DHT22;8310;44.626;11.176;2023-06-10T14:51:10;27.40;60.90
16402;DHT22;8310;44.626;11.176;2023-06-10T14:53:37;27.40;60.90
16402;DHT22;8310;44.626;11.176;2023-06-10T14:56:04;27.30;60.90
16402;DHT22;8310;44.626;11.176;2023-06-10T14:58:32;27.30;61.10
16402;DHT22;8310;44.626;11.176;2023-06-10T15:00:59;27.30;61.30
16402;DHT22;8310;44.626;11.176;2023-06-10T15:03:28;27.30;61.30
16402;DHT22;8310;44.626;11.176;2023-06-10T15:05:55;27.40;61.50
16402;DHT22;8310;44.626;11.176;2023-06-10T15:08:22;27.40;61.40
16402;DHT22;8310;44.626;11.176;2023-06-10T15:10:50;27.40;61.50
16402;DHT22;8310;44.626;11.176;2023-06-10T15:13:17;27.40;61.40
16402;DHT22;8310;44.626;11.176;2023-06-10T15:15:44;27.40;61.40
16402;DHT22;8310;44.626;11.176;2023-06-10T15:18:12;27.40;61.40
16402;DHT22;8310;44.626;11.176;2023-06-10T15:20:41;27.40;61.50
16402;DHT22;8310;44.626;11.176;2023-06-10T15:23:08;27.50;61.60
16402;DHT22;8310;44.626;11.176;2023-06-10T15:25:36;27.50;61.40
16402;DHT22;8310;44.626;11.176;2023-06-10T15:28:03;27.50;61.50
16402;DHT22;8310;44.626;11.176;2023-06-10T15:30:31;27.50;61.50
16402;DHT22;8310;44.626;11.176;2023-06-10T15:33:04;27.60;61.50
16402;DHT22;8310;44.626;11.176;2023-06-10T15:35:31;27.60;61.50
16402;DHT22;8310;44.626;11.176;2023-06-10T15:38:00;27.60;61.40